sensor_id;sensor_type;location;lat;lon;timestamp;pressure;altitude;pressure_sealevel;temperature;humidity
45247;BME280;31529;51.158;7.354;2022-12-18T00:00:05;99027.22;;;-1.74;65.96
45247;BME280;31529;51.158;7.354;2022-12-18T00:00:40;99025.06;;;-1.70;65.98
45247;BME280;31529;51.158;7.354;2022-12-18T00:01:16;99031.13;;;-1.70;65.69
45247;BME280;31529;51.158;7.354;2022-12-18T00:01:56;99025.88;;;-1.70;65.91
45247;BME280;31529;51.158;7.354;2022-12-18T00:02:29;99024.25;;;-1.71;65.15
45247;BME280;31529;51.158;7.354;2022-12-18T00:03:00;99025.41;;;-1.73;65.21
45247;BME280;31529;51.158;7.354;2022-12-18T00:03:33;99026.84;;;-1.71;65.25
45247;BME280;31529;51.158;7.354;2022-12-18T00:04:15;99027.88;;;-1.72;66.07
45247;BME280;31529;51.158;7.354;2022-12-18T00:04:51;99022.28;;;-1.69;65.57
45247;BME280;31529;51.158;7.354;2022-12-18T00:05:22;99028.84;;;-1.73;65.51
45247;BME280;31529;51.158;7.354;2022-12-18T00:05:54;99024.63;;;-1.74;65.77
45247;BME280;31529;51.158;7.354;2022-12-18T00:06:26;99024.78;;;-1.75;65.90
45247;BME280;31529;51.158;7.354;2022-12-18T00:07:01;99027.88;;;-1.72;65.89
45247;BME280;31529;51.158;7.354;2022-12-18T00:07:32;99027.53;;;-1.69;65.13
45247;BME280;31529;51.158;7.354;2022-12-18T00:08:03;99019.47;;;-1.67;65.59
45247;BME280;31529;51.158;7.354;2022-12-18T00:08:35;99028.16;;;-1.67;65.39
45247;BME280;31529;51.158;7.354;2022-12-18T00:09:07;99023.56;;;-1.65;65.15
45247;BME280;31529;51.158;7.354;2022-12-18T00:09:38;99022.53;;;-1.64;65.14
45247;BME280;31529;51.158;7.354;2022-12-18T00:10:09;99023.19;;;-1.62;65.19
45247;BME280;31529;51.158;7.354;2022-12-18T00:10:40;99029.75;;;-1.66;65.21
45247;BME280;31529;51.158;7.354;2022-12-18T00:11:13;99019.94;;;-1.64;64.82
45247;BME280;31529;51.158;7.354;2022-12-18T00:11:45;99021.91;;;-1.66;65.21
45247;BME280;31529;51.158;7.354;2022-12-18T00:12:16;99024.69;;;-1.67;65.31
45247;BME280;31529;51.158;7.354;2022-12-18T00:12:48;99024.53;;;-1.66;64.69
45247;BME280;31529;51.158;7.354;2022-12-18T00:13:19;99029.41;;;-1.63;64.92
45247;BME280;31529;51.158;7.354;2022-12-18T00:13:50;99025.16;;;-1.64;64.92
45247;BME280;31529;51.158;7.354;2022-12-18T00:14:21;99032.03;;;-1.63;65.19
45247;BME280;31529;51.158;7.354;2022-12-18T00:14:52;99020.72;;;-1.63;65.24
45247;BME280;31529;51.158;7.354;2022-12-18T00:15:23;99025.16;;;-1.64;65.10
45247;BME280;31529;51.158;7.354;2022-12-18T00:15:55;99035.47;;;-1.62;64.73
45247;BME280;31529;51.158;7.354;2022-12-18T00:16:33;99019.94;;;-1.64;64.80
45247;BME280;31529;51.158;7.354;2022-12-18T00:17:06;99023.72;;;-1.66;64.58
45247;BME280;31529;51.158;7.354;2022-12-18T00:17:39;99028.03;;;-1.73;65.03
45247;BME280;31529;51.158;7.354;2022-12-18T00:18:13;99027.06;;;-1.72;65.05
45247;BME280;31529;51.158;7.354;2022-12-18T00:18:46;99032.81;;;-1.77;65.34
45247;BME280;31529;51.158;7.354;2022-12-18T00:19:21;99028.59;;;-1.78;65.40
45247;BME280;31529;51.158;7.354;2022-12-18T00:20:03;99027.41;;;-1.75;65.20
45247;BME280;31529;51.158;7.354;2022-12-18T00:20:39;99024.78;;;-1.75;65.47
45247;BME280;31529;51.158;7.354;2022-12-18T00:21:12;99026.94;;;-1.79;65.39
45247;BME280;31529;51.158;7.354;2022-12-18T00:21:44;99022.34;;;-1.77;65.16
45247;BME280;31529;51.158;7.354;2022-12-18T00:22:16;99025.13;;;-1.79;65.45
45247;BME280;31529;51.158;7.354;2022-12-18T00:22:47;99019.91;;;-1.79;65.60
45247;BME280;31529;51.158;7.354;2022-12-18T00:23:18;99026.94;;;-1.79;65.10
45247;BME280;31529;51.158;7.354;2022-12-18T00:23:49;99026.00;;;-1.86;65.40
45247;BME280;31529;51.158;7.354;2022-12-18T00:24:24;99020.78;;;-1.86;65.59
45247;BME280;31529;51.158;7.354;2022-12-18T00:24:56;99024.41;;;-1.87;65.75
45247;BME280;31529;51.158;7.354;2022-12-18T00:25:27;99026.00;;;-1.86;65.49
45247;BME280;31529;51.158;7.354;2022-12-18T00:25:58;99022.41;;;-1.85;65.76
45247;BME280;31529;51.158;7.354;2022-12-18T00:26:33;99020.59;;;-1.85;65.83
45247;BME280;31529;51.158;7.354;2022-12-18T00:27:06;99023.41;;;-1.86;65.60
45247;BME280;31529;51.158;7.354;2022-12-18T00:27:37;99023.06;;;-1.83;65.50
45247;BME280;31529;51.158;7.354;2022-12-18T00:28:08;99030.72;;;-1.82;64.97
45247;BME280;31529;51.158;7.354;2022-12-18T00:28:39;99028.91;;;-1.81;65.69
45247;BME280;31529;51.158;7.354;2022-12-18T00:29:11;99026.31;;;-1.81;65.22
45247;BME280;31529;51.158;7.354;2022-12-18T00:29:45;99030.56;;;-1.80;65.37
45247;BME280;31529;51.158;7.354;2022-12-18T00:30:16;99034.16;;;-1.81;65.11
45247;BME280;31529;51.158;7.354;2022-12-18T00:30:47;99034.97;;;-1.81;64.99
45247;BME280;31529;51.158;7.354;2022-12-18T00:31:23;99038.59;;;-1.82;65.41
45247;BME280;31529;51.158;7.354;2022-12-18T00:31:55;99040.31;;;-1.74;65.35
45247;BME280;31529;51.158;7.354;2022-12-18T00:32:26;99041.13;;;-1.73;65.06
45247;BME280;31529;51.158;7.354;2022-12-18T00:32:57;99047.16;;;-1.73;65.11
45247;BME280;31529;51.158;7.354;2022-12-18T00:33:28;99044.19;;;-1.70;64.99
45247;BME280;31529;51.158;7.354;2022-12-18T00:34:00;99038.78;;;-1.68;64.81
45247;BME280;31529;51.158;7.354;2022-12-18T00:34:31;99046.97;;;-1.71;64.87
45247;BME280;31529;51.158;7.354;2022-12-18T00:35:03;99039.31;;;-1.73;65.06
45247;BME280;31529;51.158;7.354;2022-12-18T00:35:35;99038.97;;;-1.70;65.32
45247;BME280;31529;51.158;7.354;2022-12-18T00:36:09;99037.16;;;-1.69;64.55
45247;BME280;31529;51.158;7.354;2022-12-18T00:36:46;99034.38;;;-1.68;64.75
45247;BME280;31529;51.158;7.354;2022-12-18T00:37:18;99036.97;;;-1.68;64.70
45247;BME280;31529;51.158;7.354;2022-12-18T00:37:49;99038.78;;;-1.68;64.54
45247;BME280;31529;51.158;7.354;2022-12-18T00:38:20;99030.81;;;-1.75;64.77
45247;BME280;31529;51.158;7.354;2022-12-18T00:38:52;99033.09;;;-1.72;64.70
45247;BME280;31529;51.158;7.354;2022-12-18T00:39:24;99028.03;;;-1.73;64.97
45247;BME280;31529;51.158;7.354;2022-12-18T00:39:55;99039.03;;;-1.78;64.71
45247;BME280;31529;51.158;7.354;2022-12-18T00:40:26;99034.63;;;-1.78;64.76
45247;BME280;31529;51.158;7.354;2022-12-18T00:40:57;99038.66;;;-1.75;65.12
45247;BME280;31529;51.158;7.354;2022-12-18T00:41:28;98823.75;;;-3.07;64.74
45247;BME280;31529;51.158;7.354;2022-12-18T00:42:18;99036.59;;;-1.80;64.82
45247;BME280;31529;51.158;7.354;2022-12-18T00:43:07;99044.44;;;-1.80;64.86
45247;BME280;31529;51.158;7.354;2022-12-18T00:43:39;99040.66;;;-1.77;65.00
45247;BME280;31529;51.158;7.354;2022-12-18T00:44:11;99035.41;;;-1.77;64.61
45247;BME280;31529;51.158;7.354;2022-12-18T00:44:43;98953.66;;;-2.32;65.13
45247;BME280;31529;51.158;7.354;2022-12-18T00:45:14;99037.41;;;-1.79;65.06
45247;BME280;31529;51.158;7.354;2022-12-18T00:45:46;99032.97;;;-1.79;65.11
45247;BME280;31529;51.158;7.354;2022-12-18T00:46:17;99041.84;;;-1.80;65.40
45247;BME280;31529;51.158;7.354;2022-12-18T00:46:48;99042.63;;;-1.79;65.27
45247;BME280;31529;51.158;7.354;2022-12-18T00:47:19;99037.41;;;-1.79;65.56
45247;BME280;31529;51.158;7.354;2022-12-18T00:47:50;99034.78;;;-1.79;64.89
45247;BME280;31529;51.158;7.354;2022-12-18T00:48:22;99038.59;;;-1.82;65.19
45247;BME280;31529;51.158;7.354;2022-12-18T00:48:53;99039.94;;;-1.86;65.47
45247;BME280;31529;51.158;7.354;2022-12-18T00:49:24;99039.94;;;-1.86;65.52
45247;BME280;31529;51.158;7.354;2022-12-18T00:49:55;99036.47;;;-1.86;65.56
45247;BME280;31529;51.158;7.354;2022-12-18T00:50:26;99041.88;;;-1.88;65.44
45247;BME280;31529;51.158;7.354;2022-12-18T00:50:57;99041.44;;;-1.91;66.00
45247;BME280;31529;51.158;7.354;2022-12-18T00:51:28;99028.25;;;-1.98;66.02
45247;BME280;31529;51.158;7.354;2022-12-18T00:52:00;99038.13;;;-1.85;65.57
45247;BME280;31529;51.158;7.354;2022-12-18T00:52:31;99042.34;;;-1.84;65.36
45247;BME280;31529;51.158;7.354;2022-12-18T00:53:02;99036.94;;;-1.83;65.43
45247;BME280;31529;51.158;7.354;2022-12-18T00:53:33;99042.97;;;-1.82;65.86
45247;BME280;31529;51.158;7.354;2022-12-18T00:54:04;99042.41;;;-1.92;65.62
45247;BME280;31529;51.158;7.354;2022-12-18T00:54:35;99039.97;;;-1.94;66.12
45247;BME280;31529;51.158;7.354;2022-12-18T00:55:06;99041.78;;;-1.94;66.09
45247;BME280;31529;51.158;7.354;2022-12-18T00:55:41;99045.38;;;-1.96;66.23
45247;BME280;31529;51.158;7.354;2022-12-18T00:56:13;99043.75;;;-1.97;66.02
45247;BME280;31529;51.158;7.354;2022-12-18T00:56:44;99036.91;;;-1.98;65.97
45247;BME280;31529;51.158;7.354;2022-12-18T00:57:15;99041.94;;;-1.96;66.19
45247;BME280;31529;51.158;7.354;2022-12-18T00:57:46;99042.31;;;-1.99;65.89
45247;BME280;31529;51.158;7.354;2022-12-18T00:58:17;99028.41;;;-2.00;66.31
45247;BME280;31529;51.158;7.354;2022-12-18T00:58:48;99035.78;;;-2.03;66.12
45247;BME280;31529;51.158;7.354;2022-12-18T00:59:20;99034.00;;;-2.03;66.42
45247;BME280;31529;51.158;7.354;2022-12-18T00:59:51;99033.00;;;-2.02;66.27
45247;BME280;31529;51.158;7.354;2022-12-18T01:00:22;99032.84;;;-2.00;66.44
45247;BME280;31529;51.158;7.354;2022-12-18T01:00:53;99025.53;;;-2.05;66.18
45247;BME280;31529;51.158;7.354;2022-12-18T01:01:25;99023.25;;;-2.08;66.96
45247;BME280;31529;51.158;7.354;2022-12-18T01:01:56;99025.00;;;-2.00;67.06
45247;BME280;31529;51.158;7.354;2022-12-18T01:02:27;99025.47;;;-1.97;66.33
45247;BME280;31529;51.158;7.354;2022-12-18T01:02:58;99021.50;;;-1.92;66.58
45247;BME280;31529;51.158;7.354;2022-12-18T01:03:29;99015.91;;;-1.89;66.46
45247;BME280;31529;51.158;7.354;2022-12-18T01:04:01;99017.91;;;-1.91;66.24
45247;BME280;31529;51.158;7.354;2022-12-18T01:04:34;99023.13;;;-1.91;66.15
45247;BME280;31529;51.158;7.354;2022-12-18T01:05:05;99015.91;;;-1.89;66.06
45247;BME280;31529;51.158;7.354;2022-12-18T01:05:38;99018.72;;;-1.91;66.42
45247;BME280;31529;51.158;7.354;2022-12-18T01:06:13;99025.22;;;-1.87;66.00
45247;BME280;31529;51.158;7.354;2022-12-18T01:06:45;99024.03;;;-1.84;66.04
45247;BME280;31529;51.158;7.354;2022-12-18T01:07:16;99020.22;;;-1.97;66.38
45247;BME280;31529;51.158;7.354;2022-12-18T01:07:47;99024.91;;;-1.92;66.83
45247;BME280;31529;51.158;7.354;2022-12-18T01:08:18;99022.75;;;-1.88;66.49
45247;BME280;31529;51.158;7.354;2022-12-18T01:08:49;99019.34;;;-1.89;66.71
45247;BME280;31529;51.158;7.354;2022-12-18T01:09:20;99018.16;;;-1.86;66.25
45247;BME280;31529;51.158;7.354;2022-12-18T01:09:52;99017.19;;;-1.85;66.16
45247;BME280;31529;51.158;7.354;2022-12-18T01:10:23;99024.03;;;-1.84;66.32
45247;BME280;31529;51.158;7.354;2022-12-18T01:10:54;99017.66;;;-1.82;66.24
45247;BME280;31529;51.158;7.354;2022-12-18T01:11:25;99030.59;;;-1.88;66.30
45247;BME280;31529;51.158;7.354;2022-12-18T01:11:57;99029.97;;;-1.90;66.40
45247;BME280;31529;51.158;7.354;2022-12-18T01:12:28;99022.75;;;-1.88;66.49
45247;BME280;31529;51.158;7.354;2022-12-18T01:12:59;99025.03;;;-1.85;66.44
45247;BME280;31529;51.158;7.354;2022-12-18T01:13:30;99022.06;;;-1.82;66.02
45247;BME280;31529;51.158;7.354;2022-12-18T01:14:01;99029.56;;;-1.79;65.88
45247;BME280;31529;51.158;7.354;2022-12-18T01:14:32;99019.91;;;-1.79;65.98
45247;BME280;31529;51.158;7.354;2022-12-18T01:15:04;99022.50;;;-1.79;65.77
45247;BME280;31529;51.158;7.354;2022-12-18T01:15:36;99021.72;;;-1.79;65.78
45247;BME280;31529;51.158;7.354;2022-12-18T01:16:08;99014.66;;;-1.79;65.86
45247;BME280;31529;51.158;7.354;2022-12-18T01:16:41;99015.84;;;-1.81;66.45
45247;BME280;31529;51.158;7.354;2022-12-18T01:17:12;99011.16;;;-1.86;66.09
45247;BME280;31529;51.158;7.354;2022-12-18T01:17:43;99022.06;;;-1.82;66.13
45247;BME280;31529;51.158;7.354;2022-12-18T01:18:14;99013.09;;;-1.88;66.22
45247;BME280;31529;51.158;7.354;2022-12-18T01:18:45;99007.25;;;-1.90;66.34
45247;BME280;31529;51.158;7.354;2022-12-18T01:19:16;99016.91;;;-1.90;66.96
45247;BME280;31529;51.158;7.354;2022-12-18T01:19:47;99011.03;;;-1.92;66.51
45247;BME280;31529;51.158;7.354;2022-12-18T01:20:19;99011.19;;;-1.94;66.96
45247;BME280;31529;51.158;7.354;2022-12-18T01:20:50;99013.00;;;-1.94;66.60
45247;BME280;31529;51.158;7.354;2022-12-18T01:21:21;99009.59;;;-1.95;66.52
45247;BME280;31529;51.158;7.354;2022-12-18T01:21:53;99015.69;;;-2.03;67.13
45247;BME280;31529;51.158;7.354;2022-12-18T01:22:24;99024.19;;;-2.01;66.75
45247;BME280;31529;51.158;7.354;2022-12-18T01:22:55;99012.38;;;-1.97;67.31
45247;BME280;31529;51.158;7.354;2022-12-18T01:23:26;98914.53;;;-2.63;66.64
45247;BME280;31529;51.158;7.354;2022-12-18T01:23:57;99014.75;;;-1.87;66.19
45247;BME280;31529;51.158;7.354;2022-12-18T01:24:28;99010.22;;;-1.93;66.63
45247;BME280;31529;51.158;7.354;2022-12-18T01:24:59;99008.97;;;-1.97;67.06
45247;BME280;31529;51.158;7.354;2022-12-18T01:25:31;99014.06;;;-2.04;67.43
45247;BME280;31529;51.158;7.354;2022-12-18T01:26:05;99015.50;;;-2.01;67.18
45247;BME280;31529;51.158;7.354;2022-12-18T01:26:41;99024.53;;;-2.04;66.87
45247;BME280;31529;51.158;7.354;2022-12-18T01:27:12;99018.59;;;-1.98;67.14
45247;BME280;31529;51.158;7.354;2022-12-18T01:27:43;99023.47;;;-1.94;66.90
45247;BME280;31529;51.158;7.354;2022-12-18T01:28:14;99019.75;;;-2.00;67.27
45247;BME280;31529;51.158;7.354;2022-12-18T01:28:45;99021.84;;;-1.96;67.58
45247;BME280;31529;51.158;7.354;2022-12-18T01:29:16;99022.66;;;-1.95;67.13
45247;BME280;31529;51.158;7.354;2022-12-18T01:29:47;99016.72;;;-1.89;67.11
45247;BME280;31529;51.158;7.354;2022-12-18T01:30:20;99023.13;;;-1.91;67.39
45247;BME280;31529;51.158;7.354;2022-12-18T01:30:51;99020.16;;;-1.88;67.20
45247;BME280;31529;51.158;7.354;2022-12-18T01:31:26;99024.03;;;-1.84;67.17
45247;BME280;31529;51.158;7.354;2022-12-18T01:31:58;99023.84;;;-1.83;66.63
45247;BME280;31529;51.158;7.354;2022-12-18T01:32:30;99018.47;;;-1.81;66.55
45247;BME280;31529;51.158;7.354;2022-12-18T01:33:01;99021.25;;;-1.83;66.59
45247;BME280;31529;51.158;7.354;2022-12-18T01:33:35;99024.66;;;-1.82;66.36
45247;BME280;31529;51.158;7.354;2022-12-18T01:34:06;99020.44;;;-1.83;66.76
45247;BME280;31529;51.158;7.354;2022-12-18T01:34:37;99021.72;;;-1.79;66.52
45247;BME280;31529;51.158;7.354;2022-12-18T01:35:08;99024.97;;;-1.77;66.54
45247;BME280;31529;51.158;7.354;2022-12-18T01:35:43;99017.19;;;-1.85;66.76
45247;BME280;31529;51.158;7.354;2022-12-18T01:36:21;99019.00;;;-1.86;67.12
45247;BME280;31529;51.158;7.354;2022-12-18T01:36:54;99019.81;;;-1.85;67.10
45247;BME280;31529;51.158;7.354;2022-12-18T01:37:25;99022.25;;;-1.84;66.95
45247;BME280;31529;51.158;7.354;2022-12-18T01:37:56;99019.50;;;-1.90;67.16
45247;BME280;31529;51.158;7.354;2022-12-18T01:38:28;99025.22;;;-1.87;66.91
45247;BME280;31529;51.158;7.354;2022-12-18T01:39:00;99023.06;;;-1.83;66.77
45247;BME280;31529;51.158;7.354;2022-12-18T01:39:36;99024.66;;;-1.82;66.80
45247;BME280;31529;51.158;7.354;2022-12-18T01:40:07;99021.88;;;-1.81;66.72
45247;BME280;31529;51.158;7.354;2022-12-18T01:40:38;99022.88;;;-1.82;67.07
45247;BME280;31529;51.158;7.354;2022-12-18T01:41:09;99024.03;;;-1.84;66.73
45247;BME280;31529;51.158;7.354;2022-12-18T01:41:41;99017.69;;;-1.90;67.12
45247;BME280;31529;51.158;7.354;2022-12-18T01:42:31;99022.88;;;-1.82;67.01
45247;BME280;31529;51.158;7.354;2022-12-18T01:43:02;99022.06;;;-1.82;66.86
45247;BME280;31529;51.158;7.354;2022-12-18T01:43:47;99023.06;;;-1.83;66.96
45247;BME280;31529;51.158;7.354;2022-12-18T01:45:28;99018.00;;;-1.85;67.48
45247;BME280;31529;51.158;7.354;2022-12-18T01:46:01;99015.28;;;-1.91;67.29
45247;BME280;31529;51.158;7.354;2022-12-18T01:46:32;99014.41;;;-1.84;67.48
45247;BME280;31529;51.158;7.354;2022-12-18T01:47:03;99018.34;;;-1.88;67.49
45247;BME280;31529;51.158;7.354;2022-12-18T01:47:36;99019.16;;;-1.87;67.32
45247;BME280;31529;51.158;7.354;2022-12-18T01:48:09;99024.66;;;-1.82;67.45
45247;BME280;31529;51.158;7.354;2022-12-18T01:48:41;99027.72;;;-1.93;67.46
45247;BME280;31529;51.158;7.354;2022-12-18T01:49:13;99026.38;;;-1.89;67.89
45247;BME280;31529;51.158;7.354;2022-12-18T01:49:44;99029.63;;;-1.87;67.49
45247;BME280;31529;51.158;7.354;2022-12-18T01:50:51;99015.56;;;-1.86;67.11
45247;BME280;31529;51.158;7.354;2022-12-18T01:51:22;99024.28;;;-1.94;67.73
45247;BME280;31529;51.158;7.354;2022-12-18T01:51:53;99029.16;;;-1.91;67.54
45247;BME280;31529;51.158;7.354;2022-12-18T01:52:25;99024.09;;;-1.92;67.48
45247;BME280;31529;51.158;7.354;2022-12-18T01:53:02;99014.28;;;-1.90;67.44
45247;BME280;31529;51.158;7.354;2022-12-18T01:53:37;99018.72;;;-1.91;67.16
45247;BME280;31529;51.158;7.354;2022-12-18T01:54:10;99023.47;;;-1.94;67.53
45247;BME280;31529;51.158;7.354;2022-12-18T01:54:41;99017.78;;;-1.98;67.84
45247;BME280;31529;51.158;7.354;2022-12-18T01:55:14;99017.59;;;-1.97;67.77
45247;BME280;31529;51.158;7.354;2022-12-18T01:55:52;99013.00;;;-1.94;67.34
45247;BME280;31529;51.158;7.354;2022-12-18T01:56:25;99022.50;;;-1.93;67.33
45247;BME280;31529;51.158;7.354;2022-12-18T01:56:57;99017.69;;;-1.90;67.30
45247;BME280;31529;51.158;7.354;2022-12-18T01:57:28;99017.91;;;-1.91;67.25
45247;BME280;31529;51.158;7.354;2022-12-18T01:57:59;99023.00;;;-1.98;67.51
45247;BME280;31529;51.158;7.354;2022-12-18T01:58:43;99024.34;;;-2.02;67.98
45247;BME280;31529;51.158;7.354;2022-12-18T01:59:22;99031.97;;;-1.92;67.93
45247;BME280;31529;51.158;7.354;2022-12-18T01:59:54;99028.16;;;-1.90;67.56
45247;BME280;31529;51.158;7.354;2022-12-18T02:00:29;99026.84;;;-1.86;67.65
45247;BME280;31529;51.158;7.354;2022-12-18T02:01:01;99018.00;;;-1.85;67.23
45247;BME280;31529;51.158;7.354;2022-12-18T02:01:32;99020.78;;;-1.86;67.37
45247;BME280;31529;51.158;7.354;2022-12-18T02:02:03;99026.00;;;-1.86;67.30
45247;BME280;31529;51.158;7.354;2022-12-18T02:02:34;99029.97;;;-1.90;67.28
45247;BME280;31529;51.158;7.354;2022-12-18T02:03:06;99018.16;;;-1.86;67.38
45247;BME280;31529;51.158;7.354;2022-12-18T02:03:37;99031.63;;;-1.89;67.74
45247;BME280;31529;51.158;7.354;2022-12-18T02:05:08;99017.34;;;-1.87;67.11
45247;BME280;31529;51.158;7.354;2022-12-18T02:05:45;99012.31;;;-1.88;67.65
45247;BME280;31529;51.158;7.354;2022-12-18T02:07:11;99010.31;;;-1.86;67.47
45247;BME280;31529;51.158;7.354;2022-12-18T02:09:48;99005.59;;;-2.06;68.27
45247;BME280;31529;51.158;7.354;2022-12-18T02:10:30;99006.13;;;-1.96;67.70
45247;BME280;31529;51.158;7.354;2022-12-18T02:11:24;99007.63;;;-1.93;67.55
45247;BME280;31529;51.158;7.354;2022-12-18T02:12:54;99012.03;;;-1.93;67.96
45247;BME280;31529;51.158;7.354;2022-12-18T02:13:38;99010.88;;;-1.91;67.58
45247;BME280;31529;51.158;7.354;2022-12-18T02:14:18;99013.81;;;-1.94;67.37
45247;BME280;31529;51.158;7.354;2022-12-18T02:15:02;99017.06;;;-1.92;67.68
45247;BME280;31529;51.158;7.354;2022-12-18T02:15:42;99013.81;;;-1.94;67.33
45247;BME280;31529;51.158;7.354;2022-12-18T02:17:09;99014.28;;;-1.90;67.81
45247;BME280;31529;51.158;7.354;2022-12-18T02:17:48;99008.25;;;-1.91;67.44
45247;BME280;31529;51.158;7.354;2022-12-18T02:18:28;99014.13;;;-1.89;68.19
45247;BME280;31529;51.158;7.354;2022-12-18T02:19:06;99014.75;;;-1.87;67.20
45247;BME280;31529;51.158;7.354;2022-12-18T02:20:54;99017.28;;;-1.79;67.10
45247;BME280;31529;51.158;7.354;2022-12-18T02:22:09;99021.88;;;-1.81;67.26
45247;BME280;31529;51.158;7.354;2022-12-18T02:23:12;99025.03;;;-1.85;67.27
45247;BME280;31529;51.158;7.354;2022-12-18T02:24:45;99031.72;;;-1.83;67.82
45247;BME280;31529;51.158;7.354;2022-12-18T02:27:02;99037.94;;;-1.84;67.72
45247;BME280;31529;51.158;7.354;2022-12-18T02:27:38;99039.94;;;-1.86;67.73
45247;BME280;31529;51.158;7.354;2022-12-18T02:28:12;99040.91;;;-1.87;67.63
45247;BME280;31529;51.158;7.354;2022-12-18T02:28:48;99038.91;;;-1.85;67.45
45247;BME280;31529;51.158;7.354;2022-12-18T02:29:29;99040.09;;;-1.87;67.85
45247;BME280;31529;51.158;7.354;2022-12-18T02:30:06;99036.00;;;-1.90;67.39
45247;BME280;31529;51.158;7.354;2022-12-18T02:30:38;99036.84;;;-1.89;67.82
45247;BME280;31529;51.158;7.354;2022-12-18T02:31:13;99038.28;;;-1.87;67.55
45247;BME280;31529;51.158;7.354;2022-12-18T02:31:52;99030.78;;;-1.90;67.53
45247;BME280;31529;51.158;7.354;2022-12-18T02:32:34;99039.25;;;-1.88;67.64
45247;BME280;31529;51.158;7.354;2022-12-18T02:33:09;99027.34;;;-1.90;67.48
45247;BME280;31529;51.158;7.354;2022-12-18T02:33:42;99036.66;;;-1.88;68.01
45247;BME280;31529;51.158;7.354;2022-12-18T02:34:15;99024.09;;;-1.92;67.52
45247;BME280;31529;51.158;7.354;2022-12-18T02:34:48;99025.91;;;-1.93;67.86
45247;BME280;31529;51.158;7.354;2022-12-18T02:35:23;99025.56;;;-1.90;67.38
45247;BME280;31529;51.158;7.354;2022-12-18T02:35:56;99025.13;;;-1.93;67.50
45247;BME280;31529;51.158;7.354;2022-12-18T02:36:29;99029.88;;;-1.97;67.65
45247;BME280;31529;51.158;7.354;2022-12-18T02:37:05;99019.59;;;-1.99;67.67
45247;BME280;31529;51.158;7.354;2022-12-18T02:37:40;99024.19;;;-2.01;67.46
45247;BME280;31529;51.158;7.354;2022-12-18T02:38:14;99017.69;;;-2.05;68.00
45247;BME280;31529;51.158;7.354;2022-12-18T02:38:46;99018.34;;;-2.11;68.35
45247;BME280;31529;51.158;7.354;2022-12-18T02:39:18;99019.63;;;-2.07;68.41
45247;BME280;31529;51.158;7.354;2022-12-18T02:39:52;99019.06;;;-2.17;68.32
45247;BME280;31529;51.158;7.354;2022-12-18T02:40:27;99016.63;;;-2.19;69.13
45247;BME280;31529;51.158;7.354;2022-12-18T02:41:00;99015.81;;;-2.19;69.13
45247;BME280;31529;51.158;7.354;2022-12-18T02:41:32;99014.47;;;-2.15;68.95
45247;BME280;31529;51.158;7.354;2022-12-18T02:42:03;99020.50;;;-2.14;68.85
45247;BME280;31529;51.158;7.354;2022-12-18T02:42:38;99016.16;;;-2.22;69.34
45247;BME280;31529;51.158;7.354;2022-12-18T02:43:10;99017.31;;;-2.25;69.87
45247;BME280;31529;51.158;7.354;2022-12-18T02:43:46;99007.34;;;-2.21;69.74
45247;BME280;31529;51.158;7.354;2022-12-18T02:44:29;99008.50;;;-2.24;69.81
45247;BME280;31529;51.158;7.354;2022-12-18T02:45:00;99009.16;;;-2.22;70.14
45247;BME280;31529;51.158;7.354;2022-12-18T02:45:31;99012.56;;;-2.21;69.75
45247;BME280;31529;51.158;7.354;2022-12-18T02:46:20;99004.59;;;-2.28;69.90
45247;BME280;31529;51.158;7.354;2022-12-18T02:46:59;99011.88;;;-2.15;69.53
45247;BME280;31529;51.158;7.354;2022-12-18T02:47:31;99006.81;;;-2.17;69.53
45247;BME280;31529;51.158;7.354;2022-12-18T02:48:04;99009.88;;;-2.13;69.64
45247;BME280;31529;51.158;7.354;2022-12-18T02:48:35;99011.16;;;-2.09;69.23
45247;BME280;31529;51.158;7.354;2022-12-18T02:49:24;99004.94;;;-2.08;68.96
45247;BME280;31529;51.158;7.354;2022-12-18T02:50:20;99010.72;;;-2.12;69.10
45247;BME280;31529;51.158;7.354;2022-12-18T02:55:19;99003.25;;;-2.01;69.01
45247;BME280;31529;51.158;7.354;2022-12-18T02:56:03;99009.41;;;-1.93;69.23
45247;BME280;31529;51.158;7.354;2022-12-18T02:56:38;99008.25;;;-1.91;68.51
45247;BME280;31529;51.158;7.354;2022-12-18T02:57:30;99007.44;;;-1.91;68.96
45247;BME280;31529;51.158;7.354;2022-12-18T02:58:17;99007.53;;;-1.85;68.56
45247;BME280;31529;51.158;7.354;2022-12-18T02:58:58;99005.72;;;-1.84;68.66
45247;BME280;31529;51.158;7.354;2022-12-18T02:59:40;99006.72;;;-1.85;68.48
45247;BME280;31529;51.158;7.354;2022-12-18T03:00:31;98999.97;;;-1.80;68.10
45247;BME280;31529;51.158;7.354;2022-12-18T03:01:30;98906.84;;;-2.42;68.08
45247;BME280;31529;51.158;7.354;2022-12-18T03:03:29;98999.81;;;-1.78;68.14
45247;BME280;31529;51.158;7.354;2022-12-18T03:04:07;99001.03;;;-1.89;68.82
45247;BME280;31529;51.158;7.354;2022-12-18T03:05:09;98995.72;;;-1.81;69.01
45247;BME280;31529;51.158;7.354;2022-12-18T03:05:47;99004.41;;;-1.80;68.39
45247;BME280;31529;51.158;7.354;2022-12-18T03:06:39;99001.59;;;-1.79;68.31
45247;BME280;31529;51.158;7.354;2022-12-18T03:07:15;99005.66;;;-1.76;68.26
45247;BME280;31529;51.158;7.354;2022-12-18T03:07:57;99001.06;;;-1.74;68.10
45247;BME280;31529;51.158;7.354;2022-12-18T03:08:36;99004.16;;;-1.70;68.31
45247;BME280;31529;51.158;7.354;2022-12-18T03:09:11;99008.91;;;-1.74;68.53
45247;BME280;31529;51.158;7.354;2022-12-18T03:09:48;98996.13;;;-1.69;68.62
45247;BME280;31529;51.158;7.354;2022-12-18T03:10:32;99007.91;;;-1.73;68.31
45247;BME280;31529;51.158;7.354;2022-12-18T03:11:10;99004.59;;;-1.67;67.92
45247;BME280;31529;51.158;7.354;2022-12-18T03:11:44;99004.84;;;-1.62;67.98
45247;BME280;31529;51.158;7.354;2022-12-18T03:12:40;99015.16;;;-1.60;67.78
45247;BME280;31529;51.158;7.354;2022-12-18T03:13:19;99009.56;;;-1.57;67.39
45247;BME280;31529;51.158;7.354;2022-12-18T03:13:55;99007.75;;;-1.57;67.43
45247;BME280;31529;51.158;7.354;2022-12-18T03:14:29;99012.38;;;-1.59;67.41
45247;BME280;31529;51.158;7.354;2022-12-18T03:15:44;99000.53;;;-1.54;66.95
45247;BME280;31529;51.158;7.354;2022-12-18T03:16:20;99002.19;;;-1.53;67.40
45247;BME280;31529;51.158;7.354;2022-12-18T03:16:57;99005.59;;;-1.53;67.05
45247;BME280;31529;51.158;7.354;2022-12-18T03:17:33;99008.84;;;-1.51;66.88
45247;BME280;31529;51.158;7.354;2022-12-18T03:18:07;99006.25;;;-1.51;66.99
45247;BME280;31529;51.158;7.354;2022-12-18T03:18:48;99004.41;;;-1.50;67.05
45247;BME280;31529;51.158;7.354;2022-12-18T03:19:25;99010.28;;;-1.48;66.77